Time;durP1;ratioP1;P1;durP2;ratioP2;P2;SDS_P1;SDS_P2;PMS_P1;PMS_P2;Temp;Humidity;BMP_temperature;BMP_pressure;BME280_temperature;BME280_humidity;BME280_pressure;Samples;Min_cycle;Max_cycle;Signal;HPM_P1;HPM_P2
2022/01/15 00:01:51;;;;;;;29.83;13.65;;;5.90;99.90;;;;;;4950583;28;20043;-77
2022/01/15 00:04:16;;;;;;;31.63;12.30;;;5.90;99.90;;;;;;4959757;28;20109;-87
2022/01/15 00:06:42;;;;;;;31.75;11.90;;;5.90;99.90;;;;;;4955469;28;20042;-87
2022/01/15 00:09:08;;;;;;;31.17;13.30;;;5.90;99.90;;;;;;4957325;28;20497;-87
2022/01/15 00:11:37;;;;;;;23.60;11.32;;;5.90;99.90;;;;;;4937697;28;20043;-87
2022/01/15 00:14:24;;;;;;;23.63;11.70;;;5.90;99.90;;;;;;4941430;28;20046;-87
2022/01/15 00:16:57;;;;;;;30.27;12.32;;;5.90;99.90;;;;;;4953758;28;20046;-87
2022/01/15 00:19:35;;;;;;;;;;;5.90;99.90;;;;;;4970700;28;20147;-87
2022/01/15 00:22:01;;;;;;;26.60;11.13;;;5.90;99.90;;;;;;4966641;28;20291;-87
2022/01/15 00:24:27;;;;;;;25.98;11.40;;;5.90;99.90;;;;;;4930111;28;20049;-87
2022/01/15 00:26:53;;;;;;;25.73;12.20;;;5.90;99.90;;;;;;4949192;28;20035;-87
2022/01/15 00:29:19;;;;;;;31.10;12.13;;;5.90;99.90;;;;;;4941900;28;20398;-86
2022/01/15 00:31:44;;;;;;;27.30;10.93;;;5.90;99.90;;;;;;4957574;28;20511;-87
2022/01/15 00:34:19;;;;;;;23.75;11.32;;;5.90;99.90;;;;;;4960907;28;20510;-77
2022/01/15 00:36:45;;;;;;;23.90;10.82;;;5.80;99.90;;;;;;4944503;28;20074;-76
2022/01/15 00:39:11;;;;;;;32.10;12.15;;;5.80;99.90;;;;;;4938741;28;20508;-76
2022/01/15 00:41:36;;;;;;;31.02;10.93;;;5.80;99.90;;;;;;4948476;28;20039;-76
2022/01/15 00:44:02;;;;;;;26.52;10.18;;;5.80;99.90;;;;;;4953173;28;20043;-76
2022/01/15 00:46:28;;;;;;;25.10;10.80;;;5.80;99.90;;;;;;4973694;28;20046;-76
2022/01/15 00:48:54;;;;;;;22.50;10.82;;;5.80;99.90;;;;;;4951049;28;20046;-76
2022/01/15 00:51:20;;;;;;;27.02;11.32;;;5.80;99.90;;;;;;4963889;28;20070;-87
2022/01/15 00:53:46;;;;;;;30.25;12.18;;;5.80;99.90;;;;;;4966944;28;20564;-76
2022/01/15 00:56:11;;;;;;;33.50;12.57;;;5.80;99.90;;;;;;4957519;28;20296;-87
2022/01/15 00:58:37;;;;;;;34.10;11.02;;;5.70;99.90;;;;;;4962497;28;20054;-87
2022/01/15 01:01:03;;;;;;;33.22;11.90;;;5.80;99.90;;;;;;4959861;28;20050;-76
2022/01/15 01:03:48;;;;;;;31.38;11.85;;;5.70;99.90;;;;;;4956846;28;20088;-76
2022/01/15 01:06:15;;;;;;;38.97;13.32;;;5.70;99.90;;;;;;4976682;28;20035;-76
2022/01/15 01:08:41;;;;;;;24.50;10.60;;;5.70;99.90;;;;;;4954447;28;20105;-76
2022/01/15 01:11:22;;;;;;;29.77;11.43;;;5.70;99.90;;;;;;4964026;28;20134;-76
2022/01/15 01:24:30;;;;;;;30.70;11.43;;;5.70;99.90;;;;;;4992447;28;20046;-87
2022/01/15 01:27:23;;;;;;;30.67;11.50;;;5.70;99.90;;;;;;4966312;28;20050;-86
2022/01/15 01:30:09;;;;;;;32.28;11.18;;;5.70;99.90;;;;;;4974871;28;20412;-87
2022/01/15 01:33:29;;;;;;;27.45;11.30;;;5.70;99.90;;;;;;4961844;28;20054;-86
2022/01/15 01:35:38;;;;;;;31.77;11.32;;;5.60;99.90;;;;;;4964591;28;20043;-86
2022/01/15 01:38:16;;;;;;;32.85;12.50;;;5.60;99.90;;;;;;4976155;28;20070;-86
2022/01/15 01:40:43;;;;;;;29.00;10.05;;;5.70;99.90;;;;;;4975882;28;20046;-85
2022/01/15 01:46:35;;;;;;;24.80;8.15;;;5.60;99.90;;;;;;4990664;28;20038;-86
2022/01/15 01:48:42;;;;;;;20.17;9.15;;;5.60;99.90;;;;;;4978612;28;20046;-87
2022/01/15 01:51:08;;;;;;;21.98;9.32;;;5.60;99.90;;;;;;4979284;28;20491;-86
2022/01/15 01:53:38;;;;;;;22.75;9.18;;;5.70;99.90;;;;;;4988992;28;20039;-86
2022/01/15 01:56:04;;;;;;;25.13;8.10;;;5.60;99.90;;;;;;4975385;28;20499;-86
2022/01/15 01:58:30;;;;;;;29.20;9.30;;;5.70;99.90;;;;;;4957182;28;20097;-87
2022/01/15 02:00:56;;;;;;;21.17;8.70;;;5.70;99.90;;;;;;4957436;28;20073;-86
2022/01/15 02:03:22;;;;;;;19.85;7.78;;;5.70;99.90;;;;;;4955838;28;20448;-86
2022/01/15 02:05:48;;;;;;;13.07;6.25;;;5.70;99.90;;;;;;4982223;28;20407;-86
2022/01/15 02:08:15;;;;;;;16.48;6.13;;;5.70;99.90;;;;;;4993241;28;20046;-87
2022/01/15 02:10:41;;;;;;;11.45;4.55;;;5.70;99.90;;;;;;4969831;28;20046;-86
2022/01/15 02:13:10;;;;;;;9.60;5.38;;;5.70;99.90;;;;;;4975437;28;20077;-87
2022/01/15 02:15:38;;;;;;;15.02;6.13;;;5.70;99.90;;;;;;4946843;28;20045;-86
2022/01/15 02:18:04;;;;;;;10.90;5.68;;;5.70;99.90;;;;;;4994058;28;20045;-86
2022/01/15 02:26:26;;;;;;;15.23;6.55;;;5.70;99.90;;;;;;4977284;28;20778;-86
2022/01/15 02:29:02;;;;;;;13.07;5.60;;;5.70;99.90;;;;;;4972715;28;20046;-87
2022/01/15 02:31:30;;;;;;;11.82;5.03;;;5.70;99.90;;;;;;4953826;28;20050;-86
2022/01/15 02:33:58;;;;;;;12.10;5.45;;;5.70;99.90;;;;;;4959260;28;20144;-87
2022/01/15 02:36:29;;;;;;;16.15;6.00;;;5.70;99.90;;;;;;4959575;28;20127;-87
2022/01/15 02:38:55;;;;;;;13.57;5.75;;;5.70;99.90;;;;;;4974351;28;20069;-86
2022/01/15 02:41:30;;;;;;;11.10;5.40;;;5.70;99.90;;;;;;4973452;28;20042;-76
2022/01/15 02:43:57;;;;;;;16.42;6.18;;;5.70;99.90;;;;;;4976319;28;20046;-76
2022/01/15 02:46:46;;;;;;;12.68;5.53;;;5.70;99.90;;;;;;4957982;28;20125;-76
2022/01/15 02:49:09;;;;;;;16.00;6.50;;;5.70;99.90;;;;;;4975295;28;20415;-76
2022/01/15 02:51:36;;;;;;;14.45;5.90;;;5.70;99.90;;;;;;4973019;28;20046;-76
2022/01/15 02:54:04;;;;;;;14.77;4.72;;;5.70;99.90;;;;;;4965476;28;20550;-76
2022/01/15 02:56:56;;;;;;;12.75;5.22;;;5.60;99.90;;;;;;4954269;28;20205;-76
2022/01/15 02:59:26;;;;;;;12.93;5.40;;;5.60;99.90;;;;;;4946955;28;20042;-76
2022/01/15 03:01:51;;;;;;;15.48;5.70;;;5.60;99.90;;;;;;4964863;28;20046;-76
2022/01/15 03:04:18;;;;;;;14.95;5.97;;;5.60;99.90;;;;;;4961362;28;20065;-76
2022/01/15 03:06:44;;;;;;;10.68;4.82;;;5.60;99.90;;;;;;4961476;28;20058;-76
2022/01/15 03:09:10;;;;;;;11.30;4.43;;;5.60;99.90;;;;;;4967003;28;20051;-76
2022/01/15 03:11:35;;;;;;;11.10;4.65;;;5.70;99.90;;;;;;4964799;28;20053;-76
2022/01/15 03:14:01;;;;;;;13.07;5.00;;;5.60;99.90;;;;;;4946425;28;20042;-76
2022/01/15 03:16:27;;;;;;;12.95;5.07;;;5.70;99.90;;;;;;4942835;28;20400;-76
2022/01/15 03:18:53;;;;;;;8.32;4.70;;;5.60;99.90;;;;;;4962073;28;20046;-76
2022/01/15 03:21:19;;;;;;;9.15;4.50;;;5.60;99.90;;;;;;4945864;28;20073;-76
2022/01/15 03:23:46;;;;;;;13.82;5.63;;;5.60;99.90;;;;;;4944179;28;20076;-76
2022/01/15 03:26:13;;;;;;;9.30;4.32;;;5.60;99.90;;;;;;4938035;28;20045;-76
2022/01/15 03:28:40;;;;;;;14.48;5.30;;;5.60;99.90;;;;;;4924122;28;20046;-76
2022/01/15 03:31:06;;;;;;;10.90;5.00;;;5.60;99.90;;;;;;4967694;28;20126;-76
2022/01/15 03:33:32;;;;;;;10.77;3.95;;;5.60;99.90;;;;;;4967557;28;20046;-76
2022/01/15 03:35:59;;;;;;;10.68;4.30;;;5.50;99.90;;;;;;4948475;28;20039;-76
2022/01/15 03:38:24;;;;;;;11.43;4.63;;;5.60;99.90;;;;;;4964604;28;20073;-76
2022/01/15 03:40:54;;;;;;;12.65;4.90;;;5.60;99.90;;;;;;4950640;28;20046;-76
2022/01/15 03:43:21;;;;;;;11.40;4.97;;;5.60;99.90;;;;;;4963337;28;20043;-76
2022/01/15 03:45:47;;;;;;;13.15;5.25;;;5.60;99.90;;;;;;4957485;28;20046;-76
2022/01/15 03:48:13;;;;;;;10.77;4.63;;;5.50;99.90;;;;;;4961497;28;20050;-76
2022/01/15 03:50:39;;;;;;;10.80;4.47;;;5.50;99.90;;;;;;4960643;28;20089;-76
2022/01/15 03:53:05;;;;;;;10.18;4.30;;;5.60;99.90;;;;;;4961753;28;20086;-76
2022/01/15 03:55:31;;;;;;;13.00;5.15;;;5.60;99.90;;;;;;4951004;28;20401;-76
2022/01/15 03:57:59;;;;;;;8.07;4.47;;;5.60;99.90;;;;;;4963624;28;20042;-87
2022/01/15 04:00:26;;;;;;;16.33;5.40;;;5.60;99.90;;;;;;4946195;28;20126;-86
2022/01/15 04:02:54;;;;;;;9.13;4.50;;;5.60;99.90;;;;;;4954044;28;20096;-87
2022/01/15 04:05:20;;;;;;;9.07;4.78;;;5.50;99.90;;;;;;4966105;28;20047;-76
2022/01/15 04:07:46;;;;;;;11.13;4.95;;;5.50;99.90;;;;;;4964518;28;20049;-76
2022/01/15 04:10:15;;;;;;;12.73;5.57;;;5.50;99.90;;;;;;4964149;28;20085;-76
2022/01/15 04:12:59;;;;;;;9.25;4.20;;;5.50;99.90;;;;;;4966287;28;20523;-76
2022/01/15 04:15:25;;;;;;;13.23;5.03;;;5.50;99.90;;;;;;4990751;28;20039;-76
2022/01/15 04:17:52;;;;;;;11.80;4.57;;;5.50;99.90;;;;;;4945897;28;20051;-77
2022/01/15 04:20:22;;;;;;;8.45;4.15;;;5.50;99.90;;;;;;4983571;28;20045;-86
2022/01/15 04:23:30;;;;;;;9.65;4.18;;;5.50;99.90;;;;;;4962551;28;20065;-76
2022/01/15 04:25:56;;;;;;;8.25;4.22;;;5.50;99.90;;;;;;4968324;28;20041;-87
2022/01/15 04:28:21;;;;;;;10.85;4.40;;;5.50;99.90;;;;;;4958679;28;20042;-87
2022/01/15 04:34:37;;;;;;;11.77;4.90;;;5.50;99.90;;;;;;4977170;28;20045;-79
2022/01/15 04:37:14;;;;;;;13.75;5.38;;;5.40;99.90;;;;;;4955195;28;20046;-76
2022/01/15 04:39:42;;;;;;;11.15;5.32;;;5.50;99.90;;;;;;4965101;28;20058;-76
2022/01/15 04:42:08;;;;;;;12.10;5.05;;;5.40;99.90;;;;;;4949295;28;20039;-77
2022/01/15 04:45:13;;;;;;;11.88;5.82;;;5.50;99.90;;;;;;4974893;28;20039;-76
2022/01/15 04:47:40;;;;;;;14.63;5.82;;;5.40;99.90;;;;;;4966961;28;20042;-76
2022/01/15 04:50:09;;;;;;;10.30;5.40;;;5.50;99.90;;;;;;4963318;28;20055;-76
2022/01/15 04:52:36;;;;;;;14.27;5.47;;;5.40;99.90;;;;;;4966368;28;20054;-76
2022/01/15 04:55:03;;;;;;;11.45;5.47;;;5.40;99.90;;;;;;4975442;28;20507;-88
2022/01/15 04:57:29;;;;;;;15.57;5.95;;;5.40;99.90;;;;;;4976703;28;20046;-88
2022/01/15 04:59:57;;;;;;;15.80;6.32;;;5.40;99.90;;;;;;4992851;28;20069;-85
2022/01/15 05:02:23;;;;;;;13.48;5.95;;;5.40;99.90;;;;;;4977925;28;20112;-78
2022/01/15 05:05:28;;;;;;;14.05;6.55;;;5.40;99.90;;;;;;4974514;28;20129;-77
2022/01/15 05:08:27;;;;;;;15.77;6.50;;;5.40;99.90;;;;;;4981793;28;20046;-84
2022/01/15 05:10:58;;;;;;;13.75;6.15;;;5.40;99.90;;;;;;4978262;28;20061;-85
2022/01/15 05:20:24;;;;;;;20.52;7.55;;;5.40;99.90;;;;;;4976657;28;20042;-83
2022/01/15 05:22:56;;;;;;;16.45;7.13;;;5.40;99.90;;;;;;4977592;28;20042;-75
2022/01/15 05:25:22;;;;;;;20.63;7.90;;;5.40;99.90;;;;;;4989680;28;20108;-84
2022/01/15 05:27:51;;;;;;;18.73;8.30;;;5.40;99.90;;;;;;4994207;28;20294;-88
2022/01/15 05:33:58;;;;;;;43.42;18.35;;;5.40;99.90;;;;;;4990779;28;20400;-74
2022/01/15 05:36:24;;;;;;;39.33;17.90;;;5.40;99.90;;;;;;4957414;28;20046;-74
2022/01/15 05:38:49;;;;;;;20.33;10.60;;;5.40;99.90;;;;;;4957643;28;20050;-75
2022/01/15 05:41:15;;;;;;;23.77;9.88;;;5.30;99.90;;;;;;4959219;28;20488;-74
2022/01/15 05:43:42;;;;;;;22.92;9.60;;;5.30;99.90;;;;;;4973805;28;20038;-74
2022/01/15 05:46:07;;;;;;;21.73;8.85;;;5.30;99.90;;;;;;4974333;28;20050;-74
2022/01/15 05:48:33;;;;;;;20.38;8.82;;;5.30;99.90;;;;;;4958135;28;20185;-75
2022/01/15 05:50:59;;;;;;;18.83;8.68;;;5.30;99.90;;;;;;4978280;28;20046;-75
2022/01/15 05:53:25;;;;;;;16.23;7.95;;;5.30;99.90;;;;;;4957354;28;20057;-75
2022/01/15 05:55:51;;;;;;;18.08;8.68;;;5.30;99.90;;;;;;4973842;28;20042;-75
2022/01/15 05:58:17;;;;;;;19.48;8.60;;;5.30;99.90;;;;;;4957092;28;20139;-75
2022/01/15 06:00:42;;;;;;;16.63;7.95;;;5.30;99.90;;;;;;4972874;28;20416;-75
2022/01/15 06:03:08;;;;;;;17.60;8.32;;;5.40;99.90;;;;;;4971312;28;20541;-74
2022/01/15 06:05:34;;;;;;;17.80;8.32;;;5.30;99.90;;;;;;4972729;28;20042;-74
2022/01/15 06:08:00;;;;;;;19.75;8.85;;;5.30;99.90;;;;;;4958407;28;20421;-74
2022/01/15 06:10:26;;;;;;;23.77;9.43;;;5.30;99.90;;;;;;4973267;28;20125;-75
2022/01/15 06:12:52;;;;;;;21.58;9.20;;;5.30;99.90;;;;;;4973030;28;20439;-74
2022/01/15 06:15:17;;;;;;;17.92;8.85;;;5.30;99.90;;;;;;4973843;28;20058;-75
2022/01/15 06:17:44;;;;;;;15.55;6.78;;;5.30;99.90;;;;;;4973524;28;20129;-74
2022/01/15 06:20:12;;;;;;;18.50;8.05;;;5.30;99.90;;;;;;4972523;28;20050;-75
2022/01/15 06:22:56;;;;;;;15.50;7.80;;;5.30;99.90;;;;;;5001336;28;20081;-75
2022/01/15 06:25:22;;;;;;;16.35;7.72;;;5.30;99.90;;;;;;4999726;28;20338;-75
2022/01/15 06:27:48;;;;;;;16.95;7.70;;;5.30;99.90;;;;;;4999259;28;20038;-75
2022/01/15 06:30:14;;;;;;;20.42;8.52;;;5.20;99.90;;;;;;4979456;28;20058;-75
2022/01/15 06:32:40;;;;;;;17.33;7.05;;;5.30;99.90;;;;;;4988666;28;20487;-75
2022/01/15 06:35:12;;;;;;;17.20;7.72;;;5.20;99.90;;;;;;4987940;28;20058;-75
2022/01/15 06:37:39;;;;;;;15.82;7.32;;;5.30;99.90;;;;;;4983041;28;20128;-75
2022/01/15 06:40:06;;;;;;;15.20;6.90;;;5.30;99.90;;;;;;4972789;28;20133;-74
2022/01/15 06:42:33;;;;;;;16.17;7.50;;;5.30;99.90;;;;;;4972510;28;20178;-75
2022/01/15 06:44:58;;;;;;;17.77;7.68;;;5.20;99.90;;;;;;4972306;28;20108;-74
2022/01/15 06:47:25;;;;;;;15.88;6.38;;;5.20;99.90;;;;;;4974733;28;20042;-74
2022/01/15 06:49:51;;;;;;;17.80;7.85;;;5.20;99.90;;;;;;4959222;28;20042;-74
2022/01/15 06:52:17;;;;;;;21.98;8.25;;;5.20;99.90;;;;;;4970514;28;20496;-76
2022/01/15 06:54:43;;;;;;;19.50;8.20;;;5.20;99.90;;;;;;4953445;28;20055;-74
2022/01/15 06:57:09;;;;;;;18.00;7.30;;;5.20;99.90;;;;;;4970631;28;20420;-75
2022/01/15 06:59:35;;;;;;;20.42;8.05;;;5.20;99.90;;;;;;4938614;28;20407;-74
2022/01/15 07:02:38;;;;;;;19.00;8.05;;;5.20;99.90;;;;;;4954247;28;20039;-75
2022/01/15 07:05:06;;;;;;;17.55;7.65;;;4.70;99.90;;;;;;4954501;28;20047;-76
2022/01/15 07:07:32;;;;;;;16.38;8.43;;;5.10;99.90;;;;;;4951900;28;20058;-76
2022/01/15 07:09:58;;;;;;;17.85;7.13;;;5.20;99.90;;;;;;4937773;28;20047;-76
2022/01/15 07:12:24;;;;;;;20.27;8.45;;;5.20;99.90;;;;;;4962724;28;20121;-76
2022/01/15 07:14:49;;;;;;;18.38;7.50;;;5.20;99.90;;;;;;4958115;28;20065;-75
2022/01/15 07:17:15;;;;;;;19.17;7.60;;;5.10;99.90;;;;;;4940988;28;20051;-76
2022/01/15 07:19:42;;;;;;;18.05;8.50;;;5.10;99.90;;;;;;4957552;28;20046;-76
2022/01/15 07:22:28;;;;;;;20.05;8.77;;;5.10;99.90;;;;;;4974336;28;20460;-76
2022/01/15 07:24:53;;;;;;;23.27;10.38;;;5.10;99.90;;;;;;4958590;28;20046;-76
2022/01/15 07:27:19;;;;;;;25.88;11.75;;;5.10;99.90;;;;;;4974895;28;20049;-76
2022/01/15 07:29:45;;;;;;;28.52;11.90;;;5.10;99.90;;;;;;4958743;28;20459;-76
2022/01/15 07:32:11;;;;;;;33.08;12.60;;;5.10;99.90;;;;;;4958095;28;20059;-86
2022/01/15 07:34:36;;;;;;;27.67;11.75;;;5.00;99.90;;;;;;4996265;28;20030;-86
2022/01/15 07:40:45;;;;;;;25.92;11.98;;;5.00;99.90;;;;;;4973095;28;20109;-76
2022/01/15 07:43:11;;;;;;;30.90;12.60;;;5.00;99.90;;;;;;4957217;28;20054;-76
2022/01/15 07:45:37;;;;;;;24.80;11.07;;;5.00;99.90;;;;;;4924576;28;20043;-75
2022/01/15 07:48:03;;;;;;;26.92;12.55;;;5.00;99.90;;;;;;4973103;28;20058;-75
2022/01/15 07:50:32;;;;;;;24.88;10.63;;;5.00;99.90;;;;;;4955197;28;20051;-76
2022/01/15 07:53:13;;;;;;;22.35;9.07;;;5.00;99.90;;;;;;4961804;28;20075;-76
2022/01/15 07:55:38;;;;;;;20.45;9.45;;;5.00;99.90;;;;;;4994456;28;20042;-76
2022/01/15 07:58:28;;;;;;;17.45;8.57;;;4.90;99.90;;;;;;4946806;28;20054;-76
2022/01/15 08:00:57;;;;;;;16.85;8.30;;;5.00;99.90;;;;;;4964008;28;20045;-75
2022/01/15 08:03:38;;;;;;;15.82;8.35;;;4.90;99.90;;;;;;4957016;28;20042;-75
2022/01/15 08:06:08;;;;;;;18.10;8.65;;;4.90;99.90;;;;;;4948018;28;20089;-85
2022/01/15 08:23:54;;;;;;;15.10;7.07;;;4.90;99.90;;;;;;4928244;29;20083;-76
2022/01/15 08:34:29;;;;;;;20.02;9.27;;;4.90;99.90;;;;;;4759659;30;20050;-76
2022/01/15 08:41:43;;;;;;;20.02;9.48;;;4.90;99.90;;;;;;4662013;30;20234;-76
2022/01/15 08:44:09;;;;;;;17.85;8.90;;;4.90;99.90;;;;;;4657444;30;20077;-76
2022/01/15 08:47:02;;;;;;;18.58;8.63;;;4.90;99.90;;;;;;4676820;30;20117;-76
2022/01/15 08:58:51;;;;;;;24.98;10.02;;;4.90;99.90;;;;;;4700090;30;20594;-76
2022/01/15 09:01:17;;;;;;;20.63;8.95;;;4.90;99.90;;;;;;4694356;30;20049;-76
2022/01/15 09:04:26;;;;;;;24.42;10.30;;;4.90;99.90;;;;;;4752797;29;20046;-87
2022/01/15 09:10:41;;;;;;;17.98;8.98;;;4.90;99.90;;;;;;4808371;29;20049;-76
2022/01/15 09:13:48;;;;;;;16.48;9.18;;;4.90;99.90;;;;;;4822979;29;20058;-76
2022/01/15 09:16:52;;;;;;;18.25;9.25;;;4.80;99.90;;;;;;4843555;29;20052;-80
2022/01/15 09:20:06;;;;;;;15.85;7.90;;;4.90;99.90;;;;;;4906747;29;20127;-76
2022/01/15 09:23:21;;;;;;;18.08;8.55;;;4.90;99.90;;;;;;4914659;29;20206;-76
2022/01/15 09:30:12;;;;;;;11.80;7.40;;;4.90;99.90;;;;;;4976443;28;20042;-78
2022/01/15 09:52:22;;;;;;;16.85;9.52;;;4.90;99.90;;;;;;4860751;29;20086;-77
2022/01/15 11:08:52;;;;;;;52.60;30.40;;;4.80;99.90;;;;;;6013392;23;20537;-74
2022/01/15 11:11:23;;;;;;;70.20;45.35;;;4.80;99.90;;;;;;5985260;23;20361;-74
2022/01/15 11:27:37;;;;;;;;;;;;;;;;;;;;;
2022/01/15 12:19:02;;;;;;;22.52;15.18;;;4.60;99.90;;;;;;6246534;22;21165;-74
2022/01/15 12:21:54;;;;;;;20.63;15.23;;;4.60;99.90;;;;;;6195275;22;20019;-74
2022/01/15 12:24:39;;;;;;;18.50;11.10;;;4.60;99.90;;;;;;6224225;22;20073;-74
2022/01/15 12:27:09;;;;;;;19.60;10.82;;;4.60;99.90;;;;;;6224207;22;20020;-74
2022/01/15 12:29:36;;;;;;;19.83;11.77;;;4.50;99.90;;;;;;6249069;22;20391;-74
2022/01/15 12:32:02;;;;;;;22.90;13.73;;;4.50;99.90;;;;;;6223838;22;20026;-74
2022/01/15 12:34:31;;;;;;;20.80;12.45;;;4.50;99.90;;;;;;6198917;22;20451;-74
2022/01/15 12:36:57;;;;;;;21.00;12.27;;;4.60;99.90;;;;;;6223927;22;20016;-74
2022/01/15 12:39:38;;;;;;;24.30;13.48;;;4.50;99.90;;;;;;6248739;22;20034;-74
2022/01/15 12:42:06;;;;;;;22.95;13.43;;;4.60;99.90;;;;;;6249185;22;20016;-74
2022/01/15 12:45:02;;;;;;;22.88;14.00;;;4.60;99.90;;;;;;6248666;22;20023;-75
2022/01/15 12:47:46;;;;;;;26.05;14.18;;;4.70;99.90;;;;;;6204871;22;20514;-75
2022/01/15 12:50:12;;;;;;;23.13;13.68;;;4.70;99.90;;;;;;6248679;22;20015;-75
2022/01/15 12:52:39;;;;;;;26.25;16.98;;;4.70;99.90;;;;;;6248839;22;20081;-75
2022/01/15 12:55:06;;;;;;;24.73;18.63;;;4.70;99.90;;;;;;6223615;22;20046;-75
2022/01/15 12:57:46;;;;;;;23.17;14.20;;;4.70;99.90;;;;;;6248888;22;20099;-75
2022/01/15 13:00:19;;;;;;;21.30;12.90;;;4.70;99.90;;;;;;6223492;22;20012;-75
2022/01/15 13:02:46;;;;;;;21.20;12.73;;;4.70;99.90;;;;;;6248912;22;20347;-75
2022/01/15 13:05:14;;;;;;;23.52;13.93;;;4.70;99.90;;;;;;6248979;22;20011;-75
2022/01/15 13:07:54;;;;;;;20.52;12.95;;;4.60;99.90;;;;;;6223596;22;20019;-75
2022/01/15 13:10:32;;;;;;;20.05;12.65;;;4.60;99.90;;;;;;6223797;22;20039;-75
2022/01/15 13:13:03;;;;;;;22.95;12.80;;;4.60;99.90;;;;;;6248810;22;20016;-75
2022/01/15 13:15:31;;;;;;;19.42;12.63;;;4.60;99.90;;;;;;6249096;22;20027;-75
2022/01/15 13:31:54;;;;;;;22.75;13.85;;;4.60;99.90;;;;;;6149290;23;20719;-86
2022/01/15 13:34:55;;;;;;;24.67;15.07;;;4.50;99.90;;;;;;6155548;23;20027;-76
2022/01/15 13:37:58;;;;;;;22.35;12.45;;;4.50;99.90;;;;;;6129587;23;20025;-75
2022/01/15 13:48:21;;;;;;;27.30;15.45;;;4.40;99.90;;;;;;6113022;23;20405;-77
2022/01/15 13:54:28;;;;;;;29.58;19.00;;;4.40;99.90;;;;;;6117347;23;20013;-86
2022/01/15 13:57:31;;;;;;;27.42;15.98;;;4.40;99.90;;;;;;6097036;23;20024;-85
2022/01/15 14:00:05;;;;;;;27.73;16.25;;;4.40;99.90;;;;;;6098799;23;20028;-75
2022/01/15 14:02:55;;;;;;;26.77;16.00;;;4.40;99.90;;;;;;6072649;23;20036;-75
2022/01/15 14:05:28;;;;;;;29.20;16.48;;;4.40;99.90;;;;;;6070226;23;20817;-75
2022/01/15 14:07:56;;;;;;;24.42;16.23;;;4.40;99.90;;;;;;6047465;23;20540;-76
2022/01/15 14:10:29;;;;;;;28.77;16.95;;;4.30;99.90;;;;;;6047451;23;20548;-76
2022/01/15 14:13:14;;;;;;;28.38;17.05;;;4.30;99.90;;;;;;6051640;23;20045;-75
2022/01/15 14:16:31;;;;;;;27.80;15.48;;;4.30;99.90;;;;;;6098854;23;20023;-76
2022/01/15 14:19:49;;;;;;;29.75;17.00;;;4.30;99.90;;;;;;6200983;23;20032;-86
2022/01/15 14:22:24;;;;;;;32.55;15.52;;;4.20;99.90;;;;;;6182881;23;20021;-86
2022/01/15 14:25:10;;;;;;;28.75;14.73;;;4.20;99.90;;;;;;6158875;23;20024;-86
2022/01/15 14:27:43;;;;;;;18.80;12.23;;;4.20;99.90;;;;;;6158470;23;20103;-86
2022/01/15 14:30:13;;;;;;;31.13;16.48;;;4.10;99.90;;;;;;6183069;23;20032;-86
2022/01/15 14:32:45;;;;;;;25.98;15.30;;;4.10;99.90;;;;;;6158658;23;20020;-86
2022/01/15 14:35:12;;;;;;;;;;;4.10;99.90;;;;;;6135076;23;20614;-86
2022/01/15 14:38:08;;;;;;;32.97;18.70;;;4.00;99.90;;;;;;6156562;23;20213;-86
2022/01/15 14:40:40;;;;;;;26.98;14.88;;;4.00;99.90;;;;;;6189134;23;20016;-86
2022/01/15 14:43:13;;;;;;;29.92;17.02;;;4.00;99.90;;;;;;6190339;23;20056;-86
2022/01/15 14:45:41;;;;;;;22.73;13.55;;;4.00;99.90;;;;;;6193258;23;20016;-86
2022/01/15 14:48:07;;;;;;;26.17;15.45;;;4.00;99.90;;;;;;6217230;23;20364;-86
2022/01/15 14:50:37;;;;;;;29.67;17.23;;;4.00;99.90;;;;;;6167906;23;20019;-86
2022/01/15 14:53:04;;;;;;;26.63;16.38;;;4.00;99.90;;;;;;6131240;23;20027;-86
2022/01/15 14:55:33;;;;;;;30.90;16.95;;;4.00;99.90;;;;;;6132094;23;20049;-86
2022/01/15 14:57:59;;;;;;;31.73;16.17;;;4.10;99.90;;;;;;6130651;23;20013;-86
2022/01/15 15:00:25;;;;;;;37.38;20.15;;;4.10;99.90;;;;;;6155170;23;20028;-86
2022/01/15 15:02:54;;;;;;;32.38;17.70;;;4.10;99.90;;;;;;6155425;23;20504;-86
2022/01/15 15:05:20;;;;;;;33.45;18.13;;;4.10;99.90;;;;;;6131132;23;20025;-86
2022/01/15 15:07:46;;;;;;;34.05;21.13;;;4.10;99.90;;;;;;6130931;23;20021;-86
2022/01/15 15:10:12;;;;;;;29.63;16.95;;;4.10;99.90;;;;;;6130451;23;20076;-86
2022/01/15 15:12:42;;;;;;;32.22;16.60;;;4.10;99.90;;;;;;6155736;23;20059;-86
2022/01/15 15:15:12;;;;;;;29.20;15.20;;;4.00;99.90;;;;;;6155947;23;20024;-86
2022/01/15 15:17:39;;;;;;;29.85;16.95;;;4.00;99.90;;;;;;6155521;23;20040;-86
2022/01/15 15:20:06;;;;;;;33.13;16.67;;;4.00;99.90;;;;;;6130414;23;20045;-86
2022/01/15 15:22:36;;;;;;;28.23;16.45;;;4.00;99.90;;;;;;6155900;23;20017;-86
2022/01/15 15:25:03;;;;;;;28.23;16.63;;;4.00;99.90;;;;;;6155286;23;20024;-86
2022/01/15 15:27:29;;;;;;;34.20;18.50;;;4.00;99.90;;;;;;6155398;23;20021;-86
2022/01/15 15:29:57;;;;;;;31.48;15.73;;;4.00;99.90;;;;;;6171540;22;20043;-85
2022/01/15 15:32:24;;;;;;;32.20;16.45;;;3.90;99.90;;;;;;6197533;22;20030;-86
2022/01/15 15:34:53;;;;;;;35.30;17.48;;;3.90;99.90;;;;;;6196338;22;20047;-86
2022/01/15 15:37:20;;;;;;;35.85;17.48;;;3.90;99.90;;;;;;6247635;22;20470;-86
2022/01/15 15:39:50;;;;;;;40.22;23.35;;;4.00;99.90;;;;;;6197771;22;20026;-86
2022/01/15 15:42:24;;;;;;;38.75;20.42;;;3.90;99.90;;;;;;6224462;22;20499;-84
2022/01/15 15:45:01;;;;;;;37.97;19.02;;;4.00;99.90;;;;;;6201579;22;20016;-86
2022/01/15 15:47:42;;;;;;;34.70;17.80;;;4.00;99.90;;;;;;6225718;22;20023;-87
2022/01/15 15:50:20;;;;;;;39.80;18.80;;;4.00;99.90;;;;;;6178555;22;20016;-86
2022/01/15 15:52:53;;;;;;;37.58;18.38;;;4.00;99.90;;;;;;6203803;22;20020;-86
2022/01/15 15:55:20;;;;;;;35.70;18.23;;;4.00;99.90;;;;;;6199993;22;20015;-85
2022/01/15 15:57:49;;;;;;;39.42;19.45;;;4.00;99.90;;;;;;6198881;22;20354;-86
2022/01/15 16:03:06;;;;;;;35.15;18.83;;;4.00;99.90;;;;;;6138166;23;20083;-86
2022/01/15 16:05:34;;;;;;;38.92;18.38;;;4.00;99.90;;;;;;6176568;22;20016;-86
2022/01/15 16:08:01;;;;;;;37.10;18.70;;;4.00;99.90;;;;;;6199900;22;20478;-86
2022/01/15 16:10:28;;;;;;;38.80;19.92;;;4.00;99.90;;;;;;6224674;22;20075;-86
2022/01/15 16:12:54;;;;;;;44.00;19.48;;;4.00;99.90;;;;;;6224367;22;20102;-87
2022/01/15 16:15:27;;;;;;;40.25;20.08;;;4.00;99.90;;;;;;6192890;23;20019;-86
2022/01/15 16:17:56;;;;;;;33.63;19.02;;;3.90;99.90;;;;;;6217866;23;20012;-86
2022/01/15 16:20:59;;;;;;;40.10;20.58;;;4.00;99.90;;;;;;6217927;23;20017;-86
2022/01/15 16:23:26;;;;;;;39.47;20.02;;;4.00;99.90;;;;;;6221089;23;20012;-86
2022/01/15 16:26:00;;;;;;;41.17;19.90;;;4.00;99.90;;;;;;6221087;23;20017;-85
2022/01/15 16:28:32;;;;;;;42.33;20.08;;;4.00;99.90;;;;;;6163215;23;20008;-86
2022/01/15 16:31:09;;;;;;;44.05;21.40;;;4.00;99.90;;;;;;6166103;23;20009;-86
2022/01/15 16:33:37;;;;;;;38.67;19.55;;;3.90;99.90;;;;;;6086682;23;20025;-84
2022/01/15 16:36:04;;;;;;;45.75;19.40;;;4.00;99.90;;;;;;6109983;23;20040;-85
2022/01/15 16:38:33;;;;;;;36.67;18.42;;;3.90;99.90;;;;;;6157321;23;20040;-86
2022/01/15 16:41:04;;;;;;;40.10;19.13;;;3.90;99.90;;;;;;6146085;23;20021;-86
2022/01/15 16:43:31;;;;;;;37.60;18.55;;;3.90;99.90;;;;;;6114613;23;20048;-86
2022/01/15 16:46:09;;;;;;;37.53;20.20;;;3.90;99.90;;;;;;6123988;23;20124;-86
2022/01/15 16:48:35;;;;;;;40.47;19.85;;;3.90;99.90;;;;;;6129714;23;20056;-86
2022/01/15 16:51:01;;;;;;;46.13;21.38;;;3.90;99.90;;;;;;6105036;23;20457;-86
2022/01/15 16:53:27;;;;;;;43.38;19.33;;;3.90;99.90;;;;;;6129733;23;20032;-86
2022/01/15 16:55:56;;;;;;;43.13;19.65;;;3.90;99.90;;;;;;6105092;23;20100;-86
2022/01/15 16:58:22;;;;;;;45.00;20.20;;;3.90;99.90;;;;;;6112885;23;20659;-85
2022/01/15 17:03:24;;;;;;;46.72;22.90;;;3.90;99.90;;;;;;6238454;22;20406;-87
2022/01/15 17:05:50;;;;;;;49.00;22.50;;;3.90;99.90;;;;;;6188820;23;20016;-86
2022/01/15 17:08:15;;;;;;;51.13;22.88;;;3.80;99.90;;;;;;6213884;23;20030;-86
2022/01/15 17:10:41;;;;;;;48.30;21.35;;;4.00;99.90;;;;;;6189182;23;20012;-86
2022/01/15 17:13:07;;;;;;;48.60;22.45;;;3.90;99.90;;;;;;6189343;23;20027;-86
2022/01/15 17:15:33;;;;;;;55.70;23.45;;;3.80;99.90;;;;;;6212337;23;20023;-86
2022/01/15 17:17:59;;;;;;;56.08;22.98;;;3.80;99.90;;;;;;6210745;23;20457;-86
2022/01/15 17:20:25;;;;;;;52.95;23.20;;;3.90;99.90;;;;;;6235570;23;20078;-86
2022/01/15 17:22:50;;;;;;;57.40;23.58;;;3.80;99.90;;;;;;6210336;23;20363;-86
2022/01/15 17:25:16;;;;;;;52.70;23.38;;;3.80;99.90;;;;;;6210123;23;20105;-86
2022/01/15 17:27:43;;;;;;;57.20;24.17;;;3.80;99.90;;;;;;6184998;23;20106;-86
2022/01/15 17:30:10;;;;;;;55.80;24.05;;;4.40;99.90;;;;;;6185511;23;20020;-86
2022/01/15 17:32:35;;;;;;;64.43;25.63;;;3.80;99.90;;;;;;6210801;23;20099;-86
2022/01/15 17:35:02;;;;;;;59.83;25.63;;;4.70;99.90;;;;;;6209848;23;20062;-86